sensor_id;sensor_type;location;lat;lon;timestamp;temperature;humidity
1728;DHT22;861;48.808;9.006;2022-07-23T00:00:17;25.10;95.50
1728;DHT22;861;48.808;9.006;2022-07-23T00:02:44;25.10;95.00
1728;DHT22;861;48.808;9.006;2022-07-23T00:05:11;25.10;94.70
1728;DHT22;861;48.808;9.006;2022-07-23T00:07:38;25.00;95.00
1728;DHT22;861;48.808;9.006;2022-07-23T00:10:05;25.00;95.00
1728;DHT22;861;48.808;9.006;2022-07-23T00:12:33;25.00;95.10
1728;DHT22;861;48.808;9.006;2022-07-23T00:15:00;24.90;95.50
1728;DHT22;861;48.808;9.006;2022-07-23T00:17:26;24.90;95.40
1728;DHT22;861;48.808;9.006;2022-07-23T00:19:52;24.90;95.30
1728;DHT22;861;48.808;9.006;2022-07-23T00:22:20;24.90;95.60
1728;DHT22;861;48.808;9.006;2022-07-23T00:24:46;24.80;95.60
1728;DHT22;861;48.808;9.006;2022-07-23T00:27:12;24.80;95.70
1728;DHT22;861;48.808;9.006;2022-07-23T00:29:38;24.70;95.80
1728;DHT22;861;48.808;9.006;2022-07-23T00:32:05;24.70;95.90
1728;DHT22;861;48.808;9.006;2022-07-23T00:34:31;24.70;96.00
1728;DHT22;861;48.808;9.006;2022-07-23T00:36:57;24.60;96.10
1728;DHT22;861;48.808;9.006;2022-07-23T00:39:24;24.60;96.70
1728;DHT22;861;48.808;9.006;2022-07-23T00:41:52;24.60;96.50
1728;DHT22;861;48.808;9.006;2022-07-23T00:46:57;24.50;96.60
1728;DHT22;861;48.808;9.006;2022-07-23T00:49:30;24.50;97.20
1728;DHT22;861;48.808;9.006;2022-07-23T00:51:58;24.50;96.80
1728;DHT22;861;48.808;9.006;2022-07-23T00:54:28;24.50;96.50
1728;DHT22;861;48.808;9.006;2022-07-23T00:56:55;24.40;96.90
1728;DHT22;861;48.808;9.006;2022-07-23T00:59:21;24.40;97.10
1728;DHT22;861;48.808;9.006;2022-07-23T01:01:48;24.30;97.20
1728;DHT22;861;48.808;9.006;2022-07-23T01:04:15;24.30;97.10
1728;DHT22;861;48.808;9.006;2022-07-23T01:06:45;24.20;97.50
1728;DHT22;861;48.808;9.006;2022-07-23T01:09:12;24.20;97.50
1728;DHT22;861;48.808;9.006;2022-07-23T01:11:38;24.20;97.60
1728;DHT22;861;48.808;9.006;2022-07-23T01:14:23;24.20;99.90
1728;DHT22;861;48.808;9.006;2022-07-23T01:16:49;24.10;99.90
1728;DHT22;861;48.808;9.006;2022-07-23T01:19:18;24.00;99.90
1728;DHT22;861;48.808;9.006;2022-07-23T01:21:51;24.00;99.90
1728;DHT22;861;48.808;9.006;2022-07-23T01:24:19;24.10;99.90
1728;DHT22;861;48.808;9.006;2022-07-23T01:26:47;24.10;99.90
1728;DHT22;861;48.808;9.006;2022-07-23T01:29:16;24.40;99.90
1728;DHT22;861;48.808;9.006;2022-07-23T01:31:43;23.90;98.90
1728;DHT22;861;48.808;9.006;2022-07-23T01:34:10;24.10;98.60
1728;DHT22;861;48.808;9.006;2022-07-23T01:36:37;24.10;98.60
1728;DHT22;861;48.808;9.006;2022-07-23T01:39:05;24.20;98.90
1728;DHT22;861;48.808;9.006;2022-07-23T01:41:33;24.30;98.90
1728;DHT22;861;48.808;9.006;2022-07-23T01:44:00;24.40;99.10
1728;DHT22;861;48.808;9.006;2022-07-23T01:46:26;24.30;99.90
1728;DHT22;861;48.808;9.006;2022-07-23T01:48:53;24.20;99.80
1728;DHT22;861;48.808;9.006;2022-07-23T01:51:19;24.20;99.90
1728;DHT22;861;48.808;9.006;2022-07-23T01:53:46;24.20;99.90
1728;DHT22;861;48.808;9.006;2022-07-23T01:56:12;24.00;99.70
1728;DHT22;861;48.808;9.006;2022-07-23T01:58:40;23.90;99.90
1728;DHT22;861;48.808;9.006;2022-07-23T02:20:13;23.60;99.90
1728;DHT22;861;48.808;9.006;2022-07-23T02:22:40;23.60;99.90
1728;DHT22;861;48.808;9.006;2022-07-23T02:25:08;23.70;99.90
1728;DHT22;861;48.808;9.006;2022-07-23T02:27:36;23.60;99.90
1728;DHT22;861;48.808;9.006;2022-07-23T02:30:05;23.70;99.90
1728;DHT22;861;48.808;9.006;2022-07-23T02:32:34;23.50;99.90
1728;DHT22;861;48.808;9.006;2022-07-23T02:35:03;23.90;99.90
1728;DHT22;861;48.808;9.006;2022-07-23T02:37:30;23.60;99.90
1728;DHT22;861;48.808;9.006;2022-07-23T02:39:56;23.50;99.90
1728;DHT22;861;48.808;9.006;2022-07-23T02:42:22;23.50;99.90
1728;DHT22;861;48.808;9.006;2022-07-23T03:14:17;23.30;99.90
1728;DHT22;861;48.808;9.006;2022-07-23T03:16:43;23.60;99.90
1728;DHT22;861;48.808;9.006;2022-07-23T03:19:09;23.70;99.90
1728;DHT22;861;48.808;9.006;2022-07-23T03:21:36;23.60;99.90
1728;DHT22;861;48.808;9.006;2022-07-23T03:24:08;23.70;99.90
1728;DHT22;861;48.808;9.006;2022-07-23T03:26:36;23.50;99.90
1728;DHT22;861;48.808;9.006;2022-07-23T03:29:03;23.50;99.90
1728;DHT22;861;48.808;9.006;2022-07-23T03:31:30;23.50;99.90
1728;DHT22;861;48.808;9.006;2022-07-23T03:33:57;23.50;99.90
1728;DHT22;861;48.808;9.006;2022-07-23T03:36:24;23.40;99.90
1728;DHT22;861;48.808;9.006;2022-07-23T03:38:51;23.30;99.90
1728;DHT22;861;48.808;9.006;2022-07-23T03:41:19;23.40;99.90
1728;DHT22;861;48.808;9.006;2022-07-23T03:43:46;23.60;99.90
1728;DHT22;861;48.808;9.006;2022-07-23T03:46:13;22.90;99.90
1728;DHT22;861;48.808;9.006;2022-07-23T03:48:39;23.50;99.90
1728;DHT22;861;48.808;9.006;2022-07-23T03:51:05;23.50;99.90
1728;DHT22;861;48.808;9.006;2022-07-23T03:53:32;23.60;99.90
1728;DHT22;861;48.808;9.006;2022-07-23T03:55:58;23.30;99.90
1728;DHT22;861;48.808;9.006;2022-07-23T03:58:24;23.60;99.90
1728;DHT22;861;48.808;9.006;2022-07-23T04:00:51;23.30;99.90
1728;DHT22;861;48.808;9.006;2022-07-23T04:54:58;22.90;99.90
1728;DHT22;861;48.808;9.006;2022-07-23T04:57:24;23.10;99.90
1728;DHT22;861;48.808;9.006;2022-07-23T04:59:50;23.20;99.90
1728;DHT22;861;48.808;9.006;2022-07-23T05:02:16;23.10;99.90
1728;DHT22;861;48.808;9.006;2022-07-23T05:04:43;23.10;99.90
1728;DHT22;861;48.808;9.006;2022-07-23T05:07:09;23.10;99.90
1728;DHT22;861;48.808;9.006;2022-07-23T05:09:35;23.20;99.90
1728;DHT22;861;48.808;9.006;2022-07-23T05:12:01;23.10;99.90
1728;DHT22;861;48.808;9.006;2022-07-23T05:14:28;23.10;99.90
1728;DHT22;861;48.808;9.006;2022-07-23T05:16:54;23.10;99.90
1728;DHT22;861;48.808;9.006;2022-07-23T05:19:21;23.00;99.90
1728;DHT22;861;48.808;9.006;2022-07-23T05:21:48;23.10;99.90
1728;DHT22;861;48.808;9.006;2022-07-23T05:24:14;23.00;99.90
1728;DHT22;861;48.808;9.006;2022-07-23T05:26:40;23.10;99.90
1728;DHT22;861;48.808;9.006;2022-07-23T05:29:06;23.10;99.90
1728;DHT22;861;48.808;9.006;2022-07-23T05:31:32;23.20;99.90
1728;DHT22;861;48.808;9.006;2022-07-23T05:33:58;23.40;99.90
1728;DHT22;861;48.808;9.006;2022-07-23T05:36:24;23.40;99.90
1728;DHT22;861;48.808;9.006;2022-07-23T05:38:51;23.30;99.90
1728;DHT22;861;48.808;9.006;2022-07-23T05:41:17;23.30;99.90
1728;DHT22;861;48.808;9.006;2022-07-23T05:43:43;23.30;99.90
1728;DHT22;861;48.808;9.006;2022-07-23T05:46:09;23.30;99.90
1728;DHT22;861;48.808;9.006;2022-07-23T05:48:35;23.30;99.90
1728;DHT22;861;48.808;9.006;2022-07-23T05:51:02;23.30;99.90
1728;DHT22;861;48.808;9.006;2022-07-23T05:53:32;23.50;99.90
1728;DHT22;861;48.808;9.006;2022-07-23T05:55:58;23.60;99.90
1728;DHT22;861;48.808;9.006;2022-07-23T05:58:25;23.60;99.90
1728;DHT22;861;48.808;9.006;2022-07-23T06:00:51;23.40;99.90
1728;DHT22;861;48.808;9.006;2022-07-23T06:03:17;23.50;99.90
1728;DHT22;861;48.808;9.006;2022-07-23T06:05:43;23.50;99.90
1728;DHT22;861;48.808;9.006;2022-07-23T06:08:10;23.40;99.90
1728;DHT22;861;48.808;9.006;2022-07-23T06:10:36;23.40;99.90
1728;DHT22;861;48.808;9.006;2022-07-23T06:13:02;23.30;99.90
1728;DHT22;861;48.808;9.006;2022-07-23T06:15:28;23.30;99.90
1728;DHT22;861;48.808;9.006;2022-07-23T06:17:56;23.30;99.90
1728;DHT22;861;48.808;9.006;2022-07-23T06:20:22;23.50;99.90
1728;DHT22;861;48.808;9.006;2022-07-23T06:22:48;23.70;99.90
1728;DHT22;861;48.808;9.006;2022-07-23T06:25:14;23.90;99.90
1728;DHT22;861;48.808;9.006;2022-07-23T06:27:42;24.00;99.90
1728;DHT22;861;48.808;9.006;2022-07-23T06:30:09;24.00;99.90
1728;DHT22;861;48.808;9.006;2022-07-23T06:32:36;24.00;99.90
1728;DHT22;861;48.808;9.006;2022-07-23T06:35:02;24.10;99.90
1728;DHT22;861;48.808;9.006;2022-07-23T06:37:29;24.30;99.90
1728;DHT22;861;48.808;9.006;2022-07-23T06:39:55;24.30;99.90
1728;DHT22;861;48.808;9.006;2022-07-23T06:42:21;24.50;99.90
1728;DHT22;861;48.808;9.006;2022-07-23T06:44:47;24.50;99.90
1728;DHT22;861;48.808;9.006;2022-07-23T06:47:13;24.30;99.90
1728;DHT22;861;48.808;9.006;2022-07-23T06:49:39;24.10;99.90
1728;DHT22;861;48.808;9.006;2022-07-23T06:52:07;24.10;99.90
1728;DHT22;861;48.808;9.006;2022-07-23T06:54:35;23.90;99.90
1728;DHT22;861;48.808;9.006;2022-07-23T06:57:01;23.80;99.90
1728;DHT22;861;48.808;9.006;2022-07-23T06:59:28;23.80;99.90
1728;DHT22;861;48.808;9.006;2022-07-23T07:01:54;23.80;99.90
1728;DHT22;861;48.808;9.006;2022-07-23T07:04:20;23.70;99.90
1728;DHT22;861;48.808;9.006;2022-07-23T07:06:46;23.50;99.90
1728;DHT22;861;48.808;9.006;2022-07-23T07:09:12;23.40;99.90
1728;DHT22;861;48.808;9.006;2022-07-23T07:11:39;23.40;99.90
1728;DHT22;861;48.808;9.006;2022-07-23T07:14:05;23.10;99.90
1728;DHT22;861;48.808;9.006;2022-07-23T07:16:31;23.20;99.90
1728;DHT22;861;48.808;9.006;2022-07-23T07:18:58;23.10;99.90
1728;DHT22;861;48.808;9.006;2022-07-23T07:21:24;22.90;99.90
1728;DHT22;861;48.808;9.006;2022-07-23T07:23:50;22.80;99.90
1728;DHT22;861;48.808;9.006;2022-07-23T07:26:16;22.70;99.90
1728;DHT22;861;48.808;9.006;2022-07-23T07:28:42;22.70;99.90
1728;DHT22;861;48.808;9.006;2022-07-23T07:31:09;22.60;99.90
1728;DHT22;861;48.808;9.006;2022-07-23T07:33:35;22.60;99.90
1728;DHT22;861;48.808;9.006;2022-07-23T07:36:01;22.70;99.90
1728;DHT22;861;48.808;9.006;2022-07-23T07:38:27;23.00;99.90
1728;DHT22;861;48.808;9.006;2022-07-23T07:40:53;23.20;99.90
1728;DHT22;861;48.808;9.006;2022-07-23T07:43:19;23.30;99.90
1728;DHT22;861;48.808;9.006;2022-07-23T07:45:46;23.30;99.90
1728;DHT22;861;48.808;9.006;2022-07-23T07:48:13;23.30;99.90
1728;DHT22;861;48.808;9.006;2022-07-23T07:50:39;23.30;99.90
1728;DHT22;861;48.808;9.006;2022-07-23T07:53:05;23.40;99.90
1728;DHT22;861;48.808;9.006;2022-07-23T07:55:31;23.40;99.90
1728;DHT22;861;48.808;9.006;2022-07-23T07:57:58;23.50;99.90
1728;DHT22;861;48.808;9.006;2022-07-23T08:00:24;23.60;99.90
1728;DHT22;861;48.808;9.006;2022-07-23T08:02:54;23.80;99.90
1728;DHT22;861;48.808;9.006;2022-07-23T08:05:24;23.90;99.90
1728;DHT22;861;48.808;9.006;2022-07-23T08:07:53;24.00;99.90
1728;DHT22;861;48.808;9.006;2022-07-23T08:10:22;24.00;99.90
1728;DHT22;861;48.808;9.006;2022-07-23T08:12:55;23.90;99.90
1728;DHT22;861;48.808;9.006;2022-07-23T08:15:25;24.00;99.90
1728;DHT22;861;48.808;9.006;2022-07-23T08:17:55;24.20;99.90
1728;DHT22;861;48.808;9.006;2022-07-23T08:20:24;24.50;99.90
1728;DHT22;861;48.808;9.006;2022-07-23T08:23:04;24.70;99.90
1728;DHT22;861;48.808;9.006;2022-07-23T08:25:38;25.00;99.90
1728;DHT22;861;48.808;9.006;2022-07-23T08:28:12;25.00;99.90
1728;DHT22;861;48.808;9.006;2022-07-23T08:30:43;25.20;99.90
1728;DHT22;861;48.808;9.006;2022-07-23T08:33:15;25.40;99.90
1728;DHT22;861;48.808;9.006;2022-07-23T08:35:47;25.40;99.90
1728;DHT22;861;48.808;9.006;2022-07-23T08:38:20;25.50;99.90
1728;DHT22;861;48.808;9.006;2022-07-23T08:40:52;25.50;99.90
1728;DHT22;861;48.808;9.006;2022-07-23T08:43:26;25.60;99.90
1728;DHT22;861;48.808;9.006;2022-07-23T08:45:58;25.80;99.90
1728;DHT22;861;48.808;9.006;2022-07-23T08:48:32;26.00;99.90
1728;DHT22;861;48.808;9.006;2022-07-23T08:51:03;26.00;99.90
1728;DHT22;861;48.808;9.006;2022-07-23T08:53:34;26.10;99.90
1728;DHT22;861;48.808;9.006;2022-07-23T08:56:04;26.20;99.90
1728;DHT22;861;48.808;9.006;2022-07-23T08:58:31;26.50;99.90
1728;DHT22;861;48.808;9.006;2022-07-23T09:00:59;26.50;99.90
1728;DHT22;861;48.808;9.006;2022-07-23T09:03:34;26.40;99.90
1728;DHT22;861;48.808;9.006;2022-07-23T09:06:02;26.30;99.90
1728;DHT22;861;48.808;9.006;2022-07-23T09:08:42;26.40;99.90
1728;DHT22;861;48.808;9.006;2022-07-23T09:11:17;26.50;99.90
1728;DHT22;861;48.808;9.006;2022-07-23T09:13:49;26.40;99.90
1728;DHT22;861;48.808;9.006;2022-07-23T09:16:28;26.40;99.90
1728;DHT22;861;48.808;9.006;2022-07-23T09:19:04;26.40;99.90
1728;DHT22;861;48.808;9.006;2022-07-23T09:21:39;26.50;99.90
1728;DHT22;861;48.808;9.006;2022-07-23T09:24:12;26.70;99.90
1728;DHT22;861;48.808;9.006;2022-07-23T09:26:48;26.90;99.90
1728;DHT22;861;48.808;9.006;2022-07-23T09:29:21;26.80;99.90
1728;DHT22;861;48.808;9.006;2022-07-23T09:31:53;26.60;99.90
1728;DHT22;861;48.808;9.006;2022-07-23T09:34:25;26.50;99.90
1728;DHT22;861;48.808;9.006;2022-07-23T09:37:14;26.60;99.90
1728;DHT22;861;48.808;9.006;2022-07-23T09:39:46;26.90;99.90
1728;DHT22;861;48.808;9.006;2022-07-23T09:42:23;27.10;99.90
1728;DHT22;861;48.808;9.006;2022-07-23T09:44:55;27.10;99.90
1728;DHT22;861;48.808;9.006;2022-07-23T09:47:29;27.20;99.90
1728;DHT22;861;48.808;9.006;2022-07-23T09:50:08;27.40;99.80
1728;DHT22;861;48.808;9.006;2022-07-23T09:52:48;27.50;99.90
1728;DHT22;861;48.808;9.006;2022-07-23T09:55:18;27.70;99.90
1728;DHT22;861;48.808;9.006;2022-07-23T09:57:47;28.00;98.90
1728;DHT22;861;48.808;9.006;2022-07-23T11:32:24;30.70;81.50
1728;DHT22;861;48.808;9.006;2022-07-23T11:34:55;30.70;86.00
1728;DHT22;861;48.808;9.006;2022-07-23T11:37:39;30.90;80.80
1728;DHT22;861;48.808;9.006;2022-07-23T11:40:15;31.10;83.30
1728;DHT22;861;48.808;9.006;2022-07-23T11:42:55;30.80;76.00
1728;DHT22;861;48.808;9.006;2022-07-23T11:45:45;30.80;79.80
1728;DHT22;861;48.808;9.006;2022-07-23T11:48:29;30.80;77.80
1728;DHT22;861;48.808;9.006;2022-07-23T11:50:58;30.70;80.00
1728;DHT22;861;48.808;9.006;2022-07-23T11:53:29;30.60;78.30
1728;DHT22;861;48.808;9.006;2022-07-23T11:56:08;30.50;83.90
1728;DHT22;861;48.808;9.006;2022-07-23T11:58:39;30.60;81.30
1728;DHT22;861;48.808;9.006;2022-07-23T12:01:21;30.70;79.90
1728;DHT22;861;48.808;9.006;2022-07-23T12:03:51;30.70;84.00
1728;DHT22;861;48.808;9.006;2022-07-23T12:06:17;30.70;85.00
1728;DHT22;861;48.808;9.006;2022-07-23T12:08:44;30.50;79.00
1728;DHT22;861;48.808;9.006;2022-07-23T12:11:12;30.50;80.90
1728;DHT22;861;48.808;9.006;2022-07-23T12:13:39;30.40;81.70
1728;DHT22;861;48.808;9.006;2022-07-23T12:16:05;30.50;82.40
1728;DHT22;861;48.808;9.006;2022-07-23T12:18:32;30.30;81.60
1728;DHT22;861;48.808;9.006;2022-07-23T12:21:05;30.40;83.80
1728;DHT22;861;48.808;9.006;2022-07-23T12:23:32;30.50;83.00
1728;DHT22;861;48.808;9.006;2022-07-23T12:26:03;30.80;83.90
1728;DHT22;861;48.808;9.006;2022-07-23T12:28:32;31.10;85.30
1728;DHT22;861;48.808;9.006;2022-07-23T12:30:59;31.40;80.90
1728;DHT22;861;48.808;9.006;2022-07-23T12:33:37;31.60;76.40
1728;DHT22;861;48.808;9.006;2022-07-23T12:36:10;31.90;74.00
1728;DHT22;861;48.808;9.006;2022-07-23T12:38:46;31.90;76.90
1728;DHT22;861;48.808;9.006;2022-07-23T12:41:14;32.00;79.50
1728;DHT22;861;48.808;9.006;2022-07-23T12:43:45;32.10;77.40
1728;DHT22;861;48.808;9.006;2022-07-23T12:46:19;32.00;77.60
1728;DHT22;861;48.808;9.006;2022-07-23T12:48:50;31.80;80.30
1728;DHT22;861;48.808;9.006;2022-07-23T12:51:20;31.60;75.70
1728;DHT22;861;48.808;9.006;2022-07-23T12:54:08;31.40;73.10
1728;DHT22;861;48.808;9.006;2022-07-23T12:56:39;30.90;76.50
1728;DHT22;861;48.808;9.006;2022-07-23T12:59:14;30.60;95.90
1728;DHT22;861;48.808;9.006;2022-07-23T13:01:44;30.60;95.20
1728;DHT22;861;48.808;9.006;2022-07-23T13:04:22;30.70;95.80
1728;DHT22;861;48.808;9.006;2022-07-23T13:06:57;30.50;98.20
1728;DHT22;861;48.808;9.006;2022-07-23T13:09:32;30.60;97.40
1728;DHT22;861;48.808;9.006;2022-07-23T13:12:00;30.30;96.90
1728;DHT22;861;48.808;9.006;2022-07-23T13:14:28;30.60;98.70
1728;DHT22;861;48.808;9.006;2022-07-23T13:16:55;30.60;80.10
1728;DHT22;861;48.808;9.006;2022-07-23T13:19:22;30.70;74.70
1728;DHT22;861;48.808;9.006;2022-07-23T13:21:49;30.80;77.70
1728;DHT22;861;48.808;9.006;2022-07-23T13:24:16;31.00;75.80
1728;DHT22;861;48.808;9.006;2022-07-23T13:26:45;31.20;73.50
1728;DHT22;861;48.808;9.006;2022-07-23T13:29:12;31.50;81.00
1728;DHT22;861;48.808;9.006;2022-07-23T13:31:39;31.90;75.60
1728;DHT22;861;48.808;9.006;2022-07-23T13:34:07;32.30;72.90
1728;DHT22;861;48.808;9.006;2022-07-23T13:36:34;32.40;70.00
1728;DHT22;861;48.808;9.006;2022-07-23T13:39:04;32.40;73.20
1728;DHT22;861;48.808;9.006;2022-07-23T13:41:33;32.70;67.70
1728;DHT22;861;48.808;9.006;2022-07-23T13:44:00;32.70;68.60
1728;DHT22;861;48.808;9.006;2022-07-23T13:46:26;32.70;71.10
1728;DHT22;861;48.808;9.006;2022-07-23T13:48:52;32.80;67.50
1728;DHT22;861;48.808;9.006;2022-07-23T13:51:18;32.70;65.50
1728;DHT22;861;48.808;9.006;2022-07-23T13:53:45;32.70;67.80
1728;DHT22;861;48.808;9.006;2022-07-23T14:01:06;33.20;63.10
1728;DHT22;861;48.808;9.006;2022-07-23T14:05:59;33.20;59.30
1728;DHT22;861;48.808;9.006;2022-07-23T14:08:25;33.30;59.50
1728;DHT22;861;48.808;9.006;2022-07-23T14:10:51;33.30;60.00
1728;DHT22;861;48.808;9.006;2022-07-23T14:13:18;33.20;62.50
1728;DHT22;861;48.808;9.006;2022-07-23T14:15:44;33.10;59.50
1728;DHT22;861;48.808;9.006;2022-07-23T14:18:10;32.80;61.90
1728;DHT22;861;48.808;9.006;2022-07-23T14:20:36;32.60;62.50
1728;DHT22;861;48.808;9.006;2022-07-23T14:23:02;32.70;63.70
1728;DHT22;861;48.808;9.006;2022-07-23T14:25:29;33.30;58.50
1728;DHT22;861;48.808;9.006;2022-07-23T14:27:56;33.60;58.50
1728;DHT22;861;48.808;9.006;2022-07-23T14:30:22;33.50;59.00
1728;DHT22;861;48.808;9.006;2022-07-23T14:32:50;33.70;58.50
1728;DHT22;861;48.808;9.006;2022-07-23T14:57:18;33.10;59.10
1728;DHT22;861;48.808;9.006;2022-07-23T14:59:44;32.90;60.40
1728;DHT22;861;48.808;9.006;2022-07-23T15:02:11;32.30;62.20
1728;DHT22;861;48.808;9.006;2022-07-23T15:04:37;31.80;62.00
1728;DHT22;861;48.808;9.006;2022-07-23T15:07:03;31.60;63.20
1728;DHT22;861;48.808;9.006;2022-07-23T15:09:30;31.50;62.30
1728;DHT22;861;48.808;9.006;2022-07-23T15:11:56;31.80;62.90
1728;DHT22;861;48.808;9.006;2022-07-23T15:14:22;31.90;63.70
1728;DHT22;861;48.808;9.006;2022-07-23T15:16:49;32.20;64.60
1728;DHT22;861;48.808;9.006;2022-07-23T15:19:15;32.30;62.20
1728;DHT22;861;48.808;9.006;2022-07-23T15:21:41;32.50;62.60
1728;DHT22;861;48.808;9.006;2022-07-23T15:24:08;32.40;61.50
1728;DHT22;861;48.808;9.006;2022-07-23T15:26:34;32.20;64.30
1728;DHT22;861;48.808;9.006;2022-07-23T15:29:02;32.50;65.10
1728;DHT22;861;48.808;9.006;2022-07-23T15:31:29;32.90;62.60
1728;DHT22;861;48.808;9.006;2022-07-23T16:00:56;33.70;55.90
1728;DHT22;861;48.808;9.006;2022-07-23T16:03:22;33.70;58.50
1728;DHT22;861;48.808;9.006;2022-07-23T16:05:49;33.50;57.10
1728;DHT22;861;48.808;9.006;2022-07-23T16:08:16;33.30;59.00
1728;DHT22;861;48.808;9.006;2022-07-23T16:10:42;33.30;58.20
1728;DHT22;861;48.808;9.006;2022-07-23T16:13:08;33.30;59.50
1728;DHT22;861;48.808;9.006;2022-07-23T16:15:35;33.10;59.10
1728;DHT22;861;48.808;9.006;2022-07-23T16:18:02;33.10;60.10
1728;DHT22;861;48.808;9.006;2022-07-23T16:20:29;32.80;62.00
1728;DHT22;861;48.808;9.006;2022-07-23T16:22:55;32.20;61.80
1728;DHT22;861;48.808;9.006;2022-07-23T16:25:21;31.70;65.60
1728;DHT22;861;48.808;9.006;2022-07-23T16:27:48;31.20;65.00
1728;DHT22;861;48.808;9.006;2022-07-23T16:30:14;30.90;66.40
1728;DHT22;861;48.808;9.006;2022-07-23T16:32:41;30.70;66.00
1728;DHT22;861;48.808;9.006;2022-07-23T16:35:09;30.60;67.60
1728;DHT22;861;48.808;9.006;2022-07-23T16:37:37;30.70;68.80
1728;DHT22;861;48.808;9.006;2022-07-23T16:40:07;30.50;68.00
1728;DHT22;861;48.808;9.006;2022-07-23T16:42:36;30.40;68.50
1728;DHT22;861;48.808;9.006;2022-07-23T16:45:05;30.30;71.20
1728;DHT22;861;48.808;9.006;2022-07-23T16:47:32;30.50;70.80
1728;DHT22;861;48.808;9.006;2022-07-23T16:49:58;30.50;69.60
1728;DHT22;861;48.808;9.006;2022-07-23T16:52:24;30.40;70.70
1728;DHT22;861;48.808;9.006;2022-07-23T16:54:51;30.40;71.90
1728;DHT22;861;48.808;9.006;2022-07-23T16:57:17;30.30;71.80
1728;DHT22;861;48.808;9.006;2022-07-23T16:59:45;30.40;72.50
1728;DHT22;861;48.808;9.006;2022-07-23T17:02:11;30.40;71.90
1728;DHT22;861;48.808;9.006;2022-07-23T17:04:38;30.30;72.80
1728;DHT22;861;48.808;9.006;2022-07-23T17:07:05;30.20;73.40
1728;DHT22;861;48.808;9.006;2022-07-23T17:09:34;30.00;71.70
1728;DHT22;861;48.808;9.006;2022-07-23T17:12:02;29.80;74.20
1728;DHT22;861;48.808;9.006;2022-07-23T17:14:29;29.70;73.40
1728;DHT22;861;48.808;9.006;2022-07-23T17:16:56;29.50;75.90
1728;DHT22;861;48.808;9.006;2022-07-23T17:19:22;29.50;75.00
1728;DHT22;861;48.808;9.006;2022-07-23T17:21:49;29.30;75.50
1728;DHT22;861;48.808;9.006;2022-07-23T17:24:15;29.20;77.10
1728;DHT22;861;48.808;9.006;2022-07-23T17:26:42;29.20;77.80
1728;DHT22;861;48.808;9.006;2022-07-23T17:29:09;29.10;79.30
1728;DHT22;861;48.808;9.006;2022-07-23T17:31:36;29.00;80.40
1728;DHT22;861;48.808;9.006;2022-07-23T17:34:03;28.90;80.40
1728;DHT22;861;48.808;9.006;2022-07-23T17:36:29;28.80;81.50
1728;DHT22;861;48.808;9.006;2022-07-23T17:38:55;28.80;83.90
1728;DHT22;861;48.808;9.006;2022-07-23T17:41:22;28.80;83.30
1728;DHT22;861;48.808;9.006;2022-07-23T17:43:48;28.80;84.30
1728;DHT22;861;48.808;9.006;2022-07-23T17:46:14;28.80;84.00
1728;DHT22;861;48.808;9.006;2022-07-23T17:48:41;28.80;85.50
1728;DHT22;861;48.808;9.006;2022-07-23T17:51:08;28.80;84.30
1728;DHT22;861;48.808;9.006;2022-07-23T17:53:35;28.80;85.20
1728;DHT22;861;48.808;9.006;2022-07-23T17:56:03;28.70;84.80
1728;DHT22;861;48.808;9.006;2022-07-23T17:58:30;28.70;84.30
1728;DHT22;861;48.808;9.006;2022-07-23T18:00:57;28.60;84.70
1728;DHT22;861;48.808;9.006;2022-07-23T18:03:24;28.60;86.60
1728;DHT22;861;48.808;9.006;2022-07-23T18:05:50;28.60;86.70
1728;DHT22;861;48.808;9.006;2022-07-23T18:08:17;28.50;87.90
1728;DHT22;861;48.808;9.006;2022-07-23T18:10:43;28.50;88.80
1728;DHT22;861;48.808;9.006;2022-07-23T18:13:09;28.50;88.40
1728;DHT22;861;48.808;9.006;2022-07-23T18:15:36;28.50;89.70
1728;DHT22;861;48.808;9.006;2022-07-23T18:18:02;28.40;90.50
1728;DHT22;861;48.808;9.006;2022-07-23T18:20:29;28.50;89.10
1728;DHT22;861;48.808;9.006;2022-07-23T18:22:55;28.30;90.00
1728;DHT22;861;48.808;9.006;2022-07-23T18:25:21;28.30;90.50
1728;DHT22;861;48.808;9.006;2022-07-23T18:27:48;28.20;90.40
1728;DHT22;861;48.808;9.006;2022-07-23T18:30:14;28.20;90.40
1728;DHT22;861;48.808;9.006;2022-07-23T18:32:41;28.10;90.30
1728;DHT22;861;48.808;9.006;2022-07-23T18:35:08;28.10;90.40
1728;DHT22;861;48.808;9.006;2022-07-23T18:37:34;28.00;90.90
1728;DHT22;861;48.808;9.006;2022-07-23T18:40:01;28.00;91.00
1728;DHT22;861;48.808;9.006;2022-07-23T18:42:31;28.10;91.90
1728;DHT22;861;48.808;9.006;2022-07-23T18:44:57;28.10;91.60
1728;DHT22;861;48.808;9.006;2022-07-23T18:47:27;28.00;91.80
1728;DHT22;861;48.808;9.006;2022-07-23T18:49:53;28.00;91.60
1728;DHT22;861;48.808;9.006;2022-07-23T18:52:20;28.00;91.60
1728;DHT22;861;48.808;9.006;2022-07-23T18:54:46;28.00;91.80
1728;DHT22;861;48.808;9.006;2022-07-23T18:57:12;27.80;91.20
1728;DHT22;861;48.808;9.006;2022-07-23T18:59:39;27.80;91.60
1728;DHT22;861;48.808;9.006;2022-07-23T19:02:05;27.80;91.80
1728;DHT22;861;48.808;9.006;2022-07-23T19:04:31;27.90;92.30
1728;DHT22;861;48.808;9.006;2022-07-23T19:06:58;27.70;93.20
1728;DHT22;861;48.808;9.006;2022-07-23T19:09:24;27.60;93.40
1728;DHT22;861;48.808;9.006;2022-07-23T19:11:51;27.60;94.00
1728;DHT22;861;48.808;9.006;2022-07-23T19:14:17;27.50;93.60
1728;DHT22;861;48.808;9.006;2022-07-23T19:16:43;27.50;93.20
1728;DHT22;861;48.808;9.006;2022-07-23T19:19:09;27.40;92.50
1728;DHT22;861;48.808;9.006;2022-07-23T19:21:36;27.30;92.50
1728;DHT22;861;48.808;9.006;2022-07-23T19:24:02;27.30;92.40
1728;DHT22;861;48.808;9.006;2022-07-23T19:26:29;27.20;92.30
1728;DHT22;861;48.808;9.006;2022-07-23T19:28:55;27.00;92.60
1728;DHT22;861;48.808;9.006;2022-07-23T19:31:21;26.80;92.90
1728;DHT22;861;48.808;9.006;2022-07-23T19:33:49;26.80;92.90
1728;DHT22;861;48.808;9.006;2022-07-23T19:36:16;26.80;92.90
1728;DHT22;861;48.808;9.006;2022-07-23T19:38:42;26.90;92.50
1728;DHT22;861;48.808;9.006;2022-07-23T19:41:09;27.00;92.60
1728;DHT22;861;48.808;9.006;2022-07-23T19:43:36;27.00;92.90
1728;DHT22;861;48.808;9.006;2022-07-23T19:46:03;27.00;93.30
1728;DHT22;861;48.808;9.006;2022-07-23T19:48:29;27.00;94.00
1728;DHT22;861;48.808;9.006;2022-07-23T19:50:56;27.00;94.40
1728;DHT22;861;48.808;9.006;2022-07-23T19:53:24;26.80;95.50
1728;DHT22;861;48.808;9.006;2022-07-23T19:55:50;26.70;95.60
1728;DHT22;861;48.808;9.006;2022-07-23T19:58:16;26.60;95.00
1728;DHT22;861;48.808;9.006;2022-07-23T20:00:42;26.50;94.60
1728;DHT22;861;48.808;9.006;2022-07-23T20:03:08;26.50;94.60
1728;DHT22;861;48.808;9.006;2022-07-23T20:05:35;26.40;94.80
1728;DHT22;861;48.808;9.006;2022-07-23T20:08:01;26.30;94.80
1728;DHT22;861;48.808;9.006;2022-07-23T20:10:28;26.30;94.90
1728;DHT22;861;48.808;9.006;2022-07-23T20:12:54;26.30;94.90
1728;DHT22;861;48.808;9.006;2022-07-23T20:15:22;26.30;96.10
1728;DHT22;861;48.808;9.006;2022-07-23T20:17:48;26.20;96.50
1728;DHT22;861;48.808;9.006;2022-07-23T20:20:15;26.30;96.40
1728;DHT22;861;48.808;9.006;2022-07-23T20:22:41;26.10;97.10
1728;DHT22;861;48.808;9.006;2022-07-23T20:25:08;26.10;97.40
1728;DHT22;861;48.808;9.006;2022-07-23T20:27:34;26.00;97.70
1728;DHT22;861;48.808;9.006;2022-07-23T20:30:02;26.00;97.60
1728;DHT22;861;48.808;9.006;2022-07-23T20:32:31;25.90;97.70